Time,TemperatureF,DewpointF,PressureIn,WindDirection,WindDirectionDegrees,WindSpeedMPH,WindSpeedGustMPH,Humidity,HourlyPrecipIn,Conditions,Clouds,dailyrainin,SoftwareType,DateUTC
2013-05-12 00:11:00,48.9,42.0,0.00,SW,224,4.0,-999.0,77,-99.99,,,0.00,weatherlink.com 1.10,2013-05-12 04:11:00,
2013-05-12 00:26:00,49.9,46.0,0.00,WSW,254,2.0,-999.0,85,-99.99,,,0.00,weatherlink.com 1.10,2013-05-12 04:26:00,
2013-05-12 00:41:00,48.6,43.0,0.00,West,276,1.0,-999.0,80,-99.99,,,0.00,weatherlink.com 1.10,2013-05-12 04:41:00,
2013-05-12 00:56:00,47.9,42.0,0.00,NNW,342,1.0,-999.0,79,-99.99,,,0.00,weatherlink.com 1.10,2013-05-12 04:56:00,
2013-05-12 01:11:00,47.3,41.0,0.00,East,81,2.0,-999.0,80,-99.99,,,0.00,weatherlink.com 1.10,2013-05-12 05:11:00,
2013-05-12 01:26:00,46.7,41.0,0.00,SSE,152,1.0,-999.0,81,-99.99,,,0.00,weatherlink.com 1.10,2013-05-12 05:26:00,
2013-05-12 01:41:00,46.5,41.0,0.00,East,81,6.0,-999.0,82,-99.99,,,0.00,weatherlink.com 1.10,2013-05-12 05:41:00,
2013-05-12 01:56:00,46.4,41.0,0.00,East,88,1.0,-999.0,82,-99.99,,,0.00,weatherlink.com 1.10,2013-05-12 05:56:00,
2013-05-12 02:11:00,46.3,41.0,0.00,NE,38,3.0,-999.0,81,-99.99,,,0.00,weatherlink.com 1.10,2013-05-12 06:11:00,
2013-05-12 02:26:00,46.1,40.0,0.00,ENE,65,3.0,-999.0,80,-99.99,,,0.00,weatherlink.com 1.10,2013-05-12 06:26:00,
2013-05-12 02:41:00,46.2,40.0,0.00,ENE,65,2.0,-999.0,80,-99.99,,,0.00,weatherlink.com 1.10,2013-05-12 06:41:00,
2013-05-12 02:56:00,46.3,40.0,0.00,East,80,2.0,-999.0,80,-99.99,,,0.00,weatherlink.com 1.10,2013-05-12 06:56:00,
2013-05-12 03:11:00,46.1,41.0,0.00,ENE,58,1.0,-999.0,81,-99.99,,,0.00,weatherlink.com 1.10,2013-05-12 07:11:00,
2013-05-12 03:27:00,45.7,41.0,0.00,ENE,77,0.0,-999.0,82,-99.99,,,0.00,weatherlink.com 1.10,2013-05-12 07:27:00,
2013-05-12 03:42:00,45.8,40.0,0.00,East,87,4.0,-999.0,81,-99.99,,,0.00,weatherlink.com 1.10,2013-05-12 07:42:00,
2013-05-12 03:57:00,45.4,40.0,0.00,East,79,4.0,-999.0,80,-99.99,,,0.00,weatherlink.com 1.10,2013-05-12 07:57:00,
2013-05-12 04:12:00,45.5,39.0,0.00,ENE,73,4.0,-999.0,78,-99.99,,,0.00,weatherlink.com 1.10,2013-05-12 08:12:00,
2013-05-12 04:27:00,45.4,39.0,0.00,ENE,71,3.0,-999.0,79,-99.99,,,0.00,weatherlink.com 1.10,2013-05-12 08:27:00,
2013-05-12 04:42:00,45.1,39.0,0.00,East,96,2.0,-999.0,80,-99.99,,,0.00,weatherlink.com 1.10,2013-05-12 08:42:00,
2013-05-12 04:57:00,44.7,40.0,0.00,SE,132,1.0,-999.0,82,-99.99,,,0.00,weatherlink.com 1.10,2013-05-12 08:57:00,
2013-05-12 05:12:00,44.3,40.0,0.00,East,87,2.0,-999.0,84,-99.99,,,0.00,weatherlink.com 1.10,2013-05-12 09:12:00,
2013-05-12 05:27:00,44.1,40.0,0.00,ENE,72,2.0,-999.0,85,-99.99,,,0.00,weatherlink.com 1.10,2013-05-12 09:27:00,
2013-05-12 05:42:00,43.8,40.0,0.00,ENE,74,1.0,-999.0,87,-99.99,,,0.00,weatherlink.com 1.10,2013-05-12 09:42:00,
2013-05-12 05:57:00,43.5,40.0,0.00,NNW,348,0.0,-999.0,88,-99.99,,,0.00,weatherlink.com 1.10,2013-05-12 09:57:00,
2013-05-12 06:12:00,43.0,40.0,0.00,North,352,0.0,-999.0,88,-99.99,,,0.00,weatherlink.com 1.10,2013-05-12 10:12:00,
2013-05-12 06:27:00,42.9,40.0,0.00,West,271,1.0,-999.0,88,-99.99,,,0.00,weatherlink.com 1.10,2013-05-12 10:27:00,
2013-05-12 06:42:00,43.0,40.0,0.00,NE,49,2.0,-999.0,88,-99.99,,,0.00,weatherlink.com 1.10,2013-05-12 10:42:00,
2013-05-12 06:57:00,43.6,40.0,0.00,ENE,78,2.0,-999.0,86,-99.99,,,0.00,weatherlink.com 1.10,2013-05-12 10:57:00,
2013-05-12 07:12:00,44.6,40.0,0.00,East,88,3.0,-999.0,85,-99.99,,,0.00,weatherlink.com 1.10,2013-05-12 11:12:00,
2013-05-12 07:27:00,44.7,40.0,0.00,ESE,104,6.0,-999.0,82,-99.99,,,0.00,weatherlink.com 1.10,2013-05-12 11:27:00,
2013-05-12 07:42:00,44.8,39.0,0.00,East,79,8.0,-999.0,79,-99.99,,,0.00,weatherlink.com 1.10,2013-05-12 11:42:00,
2013-05-12 07:57:00,45.3,37.0,0.00,ENE,65,9.0,-999.0,74,-99.99,,,0.00,weatherlink.com 1.10,2013-05-12 11:57:00,
2013-05-12 08:12:00,45.9,37.0,0.00,East,81,7.0,-999.0,72,-99.99,,,0.00,weatherlink.com 1.10,2013-05-12 12:12:00,
2013-05-12 08:27:00,46.4,37.0,0.00,NE,53,6.0,-999.0,69,-99.99,,,0.00,weatherlink.com 1.10,2013-05-12 12:27:00,
2013-05-12 08:42:00,46.7,36.0,0.00,NNE,33,3.0,-999.0,66,-99.99,,,0.00,weatherlink.com 1.10,2013-05-12 12:42:00,
2013-05-12 08:57:00,46.7,35.0,0.00,ENE,67,5.0,-999.0,65,-99.99,,,0.00,weatherlink.com 1.10,2013-05-12 12:57:00,
2013-05-12 09:12:00,48.1,37.0,0.00,WNW,283,3.0,-999.0,65,-99.99,,,0.00,weatherlink.com 1.10,2013-05-12 13:12:00,
2013-05-12 09:27:00,48.2,35.0,0.00,East,95,10.0,-999.0,60,-99.99,,,0.00,weatherlink.com 1.10,2013-05-12 13:27:00,
2013-05-12 09:42:00,48.7,35.0,0.00,East,90,4.0,-999.0,59,-99.99,,,0.00,weatherlink.com 1.10,2013-05-12 13:42:00,
2013-05-12 09:57:00,50.1,36.0,0.00,NE,45,4.0,-999.0,58,-99.99,,,0.00,weatherlink.com 1.10,2013-05-12 13:57:00,
2013-05-12 10:12:00,49.4,33.0,0.00,East,83,12.0,-999.0,54,-99.99,,,0.00,weatherlink.com 1.10,2013-05-12 14:12:00,
2013-05-12 10:27:00,49.0,32.0,0.00,East,81,10.0,-999.0,52,-99.99,,,0.00,weatherlink.com 1.10,2013-05-12 14:27:00,
2013-05-12 10:42:00,49.4,31.0,0.00,WSW,241,7.0,-999.0,50,-99.99,,,0.00,weatherlink.com 1.10,2013-05-12 14:42:00,
2013-05-12 10:57:00,49.8,31.0,0.00,East,80,12.0,-999.0,49,-99.99,,,0.00,weatherlink.com 1.10,2013-05-12 14:57:00,
2013-05-12 11:12:00,50.1,33.0,0.00,NE,40,2.0,-999.0,53,-99.99,,,0.00,weatherlink.com 1.10,2013-05-12 15:12:00,
2013-05-12 11:27:00,50.2,29.0,0.00,ESE,104,12.0,-999.0,45,-99.99,,,0.00,weatherlink.com 1.10,2013-05-12 15:27:00,
2013-05-12 11:42:00,50.6,30.0,0.00,East,91,9.0,-999.0,45,-99.99,,,0.00,weatherlink.com 1.10,2013-05-12 15:42:00,
2013-05-12 11:57:00,50.8,30.0,0.00,East,81,5.0,-999.0,45,-99.99,,,0.00,weatherlink.com 1.10,2013-05-12 15:57:00,
2013-05-12 12:12:00,51.8,31.0,0.00,SE,134,6.0,-999.0,45,-99.99,,,0.00,weatherlink.com 1.10,2013-05-12 16:12:00,
2013-05-12 12:27:00,52.1,29.0,0.00,ESE,104,17.0,-999.0,41,-99.99,,,0.00,weatherlink.com 1.10,2013-05-12 16:27:00,
2013-05-12 12:42:00,52.0,29.0,0.00,ENE,77,18.0,-999.0,41,-99.99,,,0.00,weatherlink.com 1.10,2013-05-12 16:42:00,
2013-05-12 12:57:00,51.7,28.0,0.00,SSE,163,4.0,-999.0,41,-99.99,,,0.00,weatherlink.com 1.10,2013-05-12 16:57:00,
2013-05-12 13:12:00,52.1,28.0,0.00,East,90,19.0,-999.0,40,-99.99,,,0.00,weatherlink.com 1.10,2013-05-12 17:12:00,
2013-05-12 13:27:00,52.2,28.0,0.00,ENE,69,7.0,-999.0,40,-99.99,,,0.00,weatherlink.com 1.10,2013-05-12 17:27:00,
2013-05-12 13:42:00,52.4,27.0,0.00,ENE,77,18.0,-999.0,38,-99.99,,,0.00,weatherlink.com 1.10,2013-05-12 17:42:00,
2013-05-12 13:57:00,53.6,29.0,0.00,ESE,116,8.0,-999.0,39,-99.99,,,0.00,weatherlink.com 1.10,2013-05-12 17:57:00,
2013-05-12 14:12:00,54.2,29.0,0.00,East,79,13.0,-999.0,38,-99.99,,,0.00,weatherlink.com 1.10,2013-05-12 18:12:00,
2013-05-12 14:27:00,53.9,28.0,0.00,West,262,3.0,-999.0,37,-99.99,,,0.00,weatherlink.com 1.10,2013-05-12 18:27:00,
2013-05-12 14:42:00,53.8,29.0,0.00,East,81,22.0,-999.0,38,-99.99,,,0.00,weatherlink.com 1.10,2013-05-12 18:42:00,
2013-05-12 14:57:00,53.8,28.0,0.00,ENE,77,15.0,-999.0,37,-99.99,,,0.00,weatherlink.com 1.10,2013-05-12 18:57:00,
2013-05-12 15:12:00,54.2,28.0,0.00,SE,140,16.0,-999.0,36,-99.99,,,0.00,weatherlink.com 1.10,2013-05-12 19:12:00,
2013-05-12 15:27:00,54.1,27.0,0.00,East,83,17.0,-999.0,36,-99.99,,,0.00,weatherlink.com 1.10,2013-05-12 19:27:00,
2013-05-12 15:42:00,54.5,29.0,0.00,East,99,6.0,-999.0,38,-99.99,,,0.00,weatherlink.com 1.10,2013-05-12 19:42:00,
2013-05-12 15:58:00,53.9,28.0,0.00,East,81,13.0,-999.0,37,-99.99,,,0.00,weatherlink.com 1.10,2013-05-12 19:58:00,
2013-05-12 16:13:00,54.5,29.0,0.00,NE,39,4.0,-999.0,38,-99.99,,,0.00,weatherlink.com 1.10,2013-05-12 20:13:00,
2013-05-12 16:28:00,54.3,29.0,0.00,ESE,112,12.0,-999.0,38,-99.99,,,0.00,weatherlink.com 1.10,2013-05-12 20:28:00,
2013-05-12 16:43:00,53.8,28.0,0.00,East,90,14.0,-999.0,37,-99.99,,,0.00,weatherlink.com 1.10,2013-05-12 20:43:00,
2013-05-12 16:58:00,53.6,28.0,0.00,East,83,11.0,-999.0,37,-99.99,,,0.00,weatherlink.com 1.10,2013-05-12 20:58:00,
2013-05-12 17:13:00,54.6,28.0,0.00,NE,45,7.0,-999.0,36,-99.99,,,0.00,weatherlink.com 1.10,2013-05-12 21:13:00,
2013-05-12 17:28:00,54.1,29.0,0.00,ENE,73,5.0,-999.0,38,-99.99,,,0.00,weatherlink.com 1.10,2013-05-12 21:28:00,
2013-05-12 17:43:00,54.5,28.0,0.00,East,84,12.0,-999.0,37,-99.99,,,0.00,weatherlink.com 1.10,2013-05-12 21:43:00,
2013-05-12 17:58:00,55.3,28.0,0.00,East,80,14.0,-999.0,35,-99.99,,,0.00,weatherlink.com 1.10,2013-05-12 21:58:00,
2013-05-12 18:13:00,54.7,29.0,0.00,ENE,71,7.0,-999.0,37,-99.99,,,0.00,weatherlink.com 1.10,2013-05-12 22:13:00,
2013-05-12 18:28:00,53.8,29.0,0.00,East,84,12.0,-999.0,38,-99.99,,,0.00,weatherlink.com 1.10,2013-05-12 22:28:00,
2013-05-12 18:43:00,53.9,29.0,0.00,ENE,78,4.0,-999.0,38,-99.99,,,0.00,weatherlink.com 1.10,2013-05-12 22:43:00,
2013-05-12 18:58:00,54.2,29.0,0.00,NE,56,6.0,-999.0,38,-99.99,,,0.00,weatherlink.com 1.10,2013-05-12 22:58:00,
2013-05-12 19:13:00,54.3,27.0,0.00,East,87,7.0,-999.0,35,-99.99,,,0.00,weatherlink.com 1.10,2013-05-12 23:13:00,
2013-05-12 19:28:00,54.5,28.0,0.00,East,82,13.0,-999.0,36,-99.99,,,0.00,weatherlink.com 1.10,2013-05-12 23:28:00,
2013-05-12 19:43:00,54.4,29.0,0.00,NE,36,10.0,-999.0,38,-99.99,,,0.00,weatherlink.com 1.10,2013-05-12 23:43:00,
2013-05-12 19:58:00,54.0,29.0,0.00,ENE,78,9.0,-999.0,38,-99.99,,,0.00,weatherlink.com 1.10,2013-05-12 23:58:00,
2013-05-12 20:13:00,54.1,29.0,0.00,East,98,5.0,-999.0,38,-99.99,,,0.00,weatherlink.com 1.10,2013-05-13 00:13:00,
2013-05-12 20:28:00,53.3,29.0,0.00,NE,56,6.0,-999.0,39,-99.99,,,0.00,weatherlink.com 1.10,2013-05-13 00:28:00,
2013-05-12 20:43:00,53.0,29.0,0.00,East,81,10.0,-999.0,40,-99.99,,,0.00,weatherlink.com 1.10,2013-05-13 00:43:00,
2013-05-12 20:58:00,52.6,29.0,0.00,East,95,5.0,-999.0,41,-99.99,,,0.00,weatherlink.com 1.10,2013-05-13 00:58:00,
2013-05-12 21:13:00,52.4,30.0,0.00,ESE,106,3.0,-999.0,42,-99.99,,,0.00,weatherlink.com 1.10,2013-05-13 01:13:00,
2013-05-12 21:28:00,52.2,30.0,0.00,ENE,77,8.0,-999.0,42,-99.99,,,0.00,weatherlink.com 1.10,2013-05-13 01:28:00,
2013-05-12 21:43:00,52.0,30.0,0.00,ENE,69,2.0,-999.0,43,-99.99,,,0.00,weatherlink.com 1.10,2013-05-13 01:43:00,
2013-05-12 21:58:00,51.9,30.0,0.00,ENE,78,6.0,-999.0,43,-99.99,,,0.00,weatherlink.com 1.10,2013-05-13 01:58:00,
2013-05-12 22:13:00,51.7,30.0,0.00,ENE,77,2.0,-999.0,43,-99.99,,,0.00,weatherlink.com 1.10,2013-05-13 02:13:00,
2013-05-12 22:28:00,51.5,30.0,0.00,East,86,2.0,-999.0,44,-99.99,,,0.00,weatherlink.com 1.10,2013-05-13 02:28:00,
2013-05-12 22:43:00,51.1,31.0,0.00,East,81,2.0,-999.0,47,-99.99,,,0.00,weatherlink.com 1.10,2013-05-13 02:43:00,
2013-05-12 22:58:00,50.9,31.0,0.00,ENE,65,3.0,-999.0,47,-99.99,,,0.00,weatherlink.com 1.10,2013-05-13 02:58:00,
2013-05-12 23:13:00,50.2,31.0,0.00,ENE,73,3.0,-999.0,48,-99.99,,,0.00,weatherlink.com 1.10,2013-05-13 03:13:00,
2013-05-12 23:28:00,49.9,33.0,0.00,East,99,4.0,-999.0,52,-99.99,,,0.00,weatherlink.com 1.10,2013-05-13 03:28:00,
2013-05-12 23:43:00,49.8,35.0,0.00,West,274,1.0,-999.0,58,-99.99,,,0.00,weatherlink.com 1.10,2013-05-13 03:43:00,
2013-05-12 23:58:00,49.5,34.0,0.00,ENE,69,4.0,-999.0,55,-99.99,,,0.00,weatherlink.com 1.10,2013-05-13 03:58:00,